createdAt,value
2022-11-24T00:01:20.618Z,2.22
2022-11-24T00:03:55.071Z,2.60
2022-11-24T00:06:25.358Z,3.15
2022-11-24T00:08:54.491Z,2.60
2022-11-24T00:11:23.903Z,2.85
2022-11-24T00:13:52.894Z,3.30
2022-11-24T00:16:22.527Z,2.67
2022-11-24T00:18:51.637Z,3.40
2022-11-24T00:21:20.834Z,3.20
2022-11-24T00:23:51.345Z,3.47
2022-11-24T00:26:20.663Z,3.90
2022-11-24T00:28:49.907Z,3.33
2022-11-24T00:31:20.065Z,3.95
2022-11-24T00:33:49.187Z,3.25
2022-11-24T00:36:18.555Z,3.42
2022-11-24T00:38:47.163Z,3.60
2022-11-24T00:41:17.086Z,3.13
2022-11-24T00:43:45.711Z,4.05
2022-11-24T00:46:14.394Z,4.13
2022-11-24T00:48:43.075Z,3.78
2022-11-24T00:51:12.558Z,3.28
2022-11-24T00:53:41.395Z,3.60
2022-11-24T00:56:10.497Z,3.28
2022-11-24T00:58:40.589Z,3.60
2022-11-24T01:01:10.909Z,3.35
2022-11-24T01:03:39.943Z,2.83
2022-11-24T01:06:09.407Z,3.28
2022-11-24T01:08:38.670Z,4.00
2022-11-24T01:11:10.964Z,3.65
2022-11-24T01:13:41.324Z,3.63
2022-11-24T01:16:15.620Z,3.85
2022-11-24T01:18:44.269Z,3.78
2022-11-24T01:21:12.883Z,3.35
2022-11-24T01:23:41.719Z,3.22
2022-11-24T01:26:10.999Z,3.22
2022-11-24T01:28:46.621Z,3.65
2022-11-24T01:31:16.833Z,3.17
2022-11-24T01:33:45.500Z,3.13
2022-11-24T01:36:14.578Z,3.55
2022-11-24T01:38:43.257Z,3.70
2022-11-24T01:41:12.828Z,3.58
2022-11-24T01:43:43.013Z,3.97
2022-11-24T01:46:17.039Z,3.42
2022-11-24T01:48:48.593Z,3.20
2022-11-24T01:51:18.343Z,3.15
2022-11-24T01:53:51.099Z,3.33
2022-11-24T01:56:20.147Z,3.67
2022-11-24T01:58:50.573Z,3.25
2022-11-24T02:01:19.303Z,3.45
2022-11-24T02:03:49.065Z,3.00
2022-11-24T02:06:20.863Z,3.28
2022-11-24T02:08:52.348Z,3.40
2022-11-24T02:11:21.636Z,3.67
2022-11-24T02:13:51.801Z,3.50
2022-11-24T02:16:20.436Z,3.65
2022-11-24T02:18:49.093Z,4.07
2022-11-24T02:21:18.282Z,3.75
2022-11-24T02:23:49.168Z,3.33
2022-11-24T02:26:22.898Z,3.45
2022-11-24T02:28:52.995Z,3.30
2022-11-24T02:31:21.672Z,3.42
2022-11-24T02:33:50.761Z,3.00
2022-11-24T02:36:19.381Z,3.67
2022-11-24T02:38:47.918Z,3.20
2022-11-24T02:41:19.971Z,3.50
2022-11-24T02:43:50.504Z,3.55
2022-11-24T02:46:20.446Z,4.10
2022-11-24T02:48:49.095Z,3.45
2022-11-24T02:51:17.647Z,3.60
2022-11-24T02:53:46.311Z,3.67
2022-11-24T02:56:14.864Z,3.85
2022-11-24T02:58:43.403Z,3.58
2022-11-24T03:01:12.085Z,3.63
2022-11-24T03:03:42.059Z,3.90
2022-11-24T03:06:10.632Z,3.70
2022-11-24T03:08:39.176Z,3.55
2022-11-24T03:11:07.712Z,3.60
2022-11-24T03:13:36.295Z,3.65
2022-11-24T03:16:04.892Z,3.53
2022-11-24T03:18:33.484Z,3.47
2022-11-24T03:21:03.406Z,3.60
2022-11-24T03:23:31.972Z,3.72
2022-11-24T03:26:08.367Z,3.70
2022-11-24T03:28:37.025Z,4.30
2022-11-24T03:31:05.691Z,3.80
2022-11-24T03:33:34.364Z,4.00
2022-11-24T03:36:04.611Z,4.13
2022-11-24T03:38:33.203Z,3.97
2022-11-24T03:41:01.767Z,4.18
2022-11-24T03:43:30.811Z,4.55
2022-11-24T03:45:59.405Z,4.60
2022-11-24T03:48:28.311Z,4.28
2022-11-24T03:50:57.452Z,5.03
2022-11-24T03:53:28.298Z,4.75
2022-11-24T03:55:57.143Z,4.80
2022-11-24T03:58:26.138Z,4.57
2022-11-24T04:00:55.945Z,5.05
2022-11-24T04:03:24.803Z,5.28
2022-11-24T04:05:53.394Z,4.65
2022-11-24T04:08:22.045Z,5.05
2022-11-24T04:10:53.062Z,4.55
2022-11-24T04:13:21.517Z,4.60
2022-11-24T04:15:50.138Z,5.25
2022-11-24T04:18:18.773Z,4.20
2022-11-24T04:20:47.481Z,4.28
2022-11-24T04:23:16.028Z,4.43
2022-11-24T04:25:44.611Z,4.70
2022-11-24T04:28:15.013Z,4.65
2022-11-24T04:30:44.824Z,4.50
2022-11-24T04:33:14.315Z,4.43
2022-11-24T04:35:42.945Z,4.35
2022-11-24T04:38:11.532Z,4.38
2022-11-24T04:40:40.086Z,4.47
2022-11-24T04:43:08.642Z,4.22
2022-11-24T04:45:38.585Z,4.55
2022-11-24T04:48:07.319Z,4.30
2022-11-24T04:50:35.934Z,4.13
2022-11-24T04:53:04.513Z,3.75
2022-11-24T04:55:33.312Z,3.58
2022-11-24T04:58:02.511Z,4.05
2022-11-24T05:00:31.104Z,4.18
2022-11-24T05:03:01.015Z,4.15
2022-11-24T05:05:29.614Z,4.00
2022-11-24T05:07:58.181Z,4.00
2022-11-24T05:10:39.040Z,3.20
2022-11-24T05:13:08.919Z,3.83
2022-11-24T05:15:38.487Z,4.35
2022-11-24T05:18:08.937Z,4.20
2022-11-24T05:20:37.989Z,4.38
2022-11-24T05:23:07.900Z,4.47
2022-11-24T05:25:36.786Z,4.15
2022-11-24T05:28:06.307Z,4.03
2022-11-24T05:30:34.859Z,4.32
2022-11-24T05:33:06.290Z,3.75
2022-11-24T05:35:36.714Z,4.30
2022-11-24T05:38:05.822Z,4.50
2022-11-24T05:40:34.434Z,3.80
2022-11-24T05:43:02.995Z,3.83
2022-11-24T05:45:31.592Z,3.60
2022-11-24T05:48:05.548Z,3.90
2022-11-24T05:50:34.162Z,4.30
2022-11-24T05:53:05.470Z,3.83
2022-11-24T05:55:34.315Z,4.03
2022-11-24T05:58:03.249Z,4.10
2022-11-24T06:00:32.601Z,3.83
2022-11-24T06:03:01.965Z,3.97
2022-11-24T06:05:30.904Z,3.92
2022-11-24T06:08:00.782Z,4.05
2022-11-24T06:10:30.854Z,3.90
2022-11-24T06:12:59.428Z,4.00
2022-11-24T06:15:27.999Z,3.58
2022-11-24T06:17:56.818Z,3.28
2022-11-24T06:20:31.179Z,3.88
2022-11-24T06:23:01.141Z,3.67
2022-11-24T06:25:31.285Z,3.83
2022-11-24T06:27:59.850Z,3.53
2022-11-24T06:30:28.417Z,3.53
2022-11-24T06:32:57.150Z,4.10
2022-11-24T06:35:25.742Z,3.88
2022-11-24T06:37:54.265Z,3.70
2022-11-24T06:40:22.806Z,3.85
2022-11-24T06:42:56.105Z,3.80
2022-11-24T06:45:24.829Z,3.83
2022-11-24T06:47:55.313Z,3.55
2022-11-24T06:50:26.023Z,3.97
2022-11-24T06:52:57.954Z,4.00
2022-11-24T06:55:26.512Z,3.90
2022-11-24T06:57:56.414Z,4.05
2022-11-24T07:00:25.177Z,3.90
2022-11-24T07:02:53.881Z,3.88
2022-11-24T07:05:22.466Z,4.00
2022-11-24T07:07:51.173Z,4.32
2022-11-24T07:10:19.879Z,3.90
2022-11-24T07:12:48.402Z,3.80
2022-11-24T07:15:18.440Z,3.97
2022-11-24T07:17:47.072Z,4.10
2022-11-24T07:20:15.609Z,4.63
2022-11-24T07:22:44.153Z,4.18
2022-11-24T07:25:14.466Z,4.20
2022-11-24T07:27:43.003Z,4.22
2022-11-24T07:30:11.811Z,4.28
2022-11-24T07:32:41.709Z,3.72
2022-11-24T07:35:10.455Z,4.13
2022-11-24T07:37:38.974Z,4.38
2022-11-24T07:40:08.186Z,4.18
2022-11-24T07:42:36.704Z,4.03
2022-11-24T07:45:05.394Z,3.70
2022-11-24T07:47:33.967Z,4.15
2022-11-24T07:50:03.869Z,4.32
2022-11-24T07:52:32.401Z,3.92
2022-11-24T07:55:00.952Z,3.67
2022-11-24T07:57:29.772Z,4.22
2022-11-24T07:59:58.314Z,3.60
2022-11-24T08:02:26.841Z,3.80
2022-11-24T08:04:55.461Z,4.15
2022-11-24T08:07:25.410Z,3.90
2022-11-24T08:09:53.995Z,3.83
2022-11-24T08:12:22.637Z,4.18
2022-11-24T08:14:51.415Z,4.25
2022-11-24T08:17:20.220Z,4.18
2022-11-24T08:19:48.740Z,3.50
2022-11-24T08:22:17.278Z,3.97
2022-11-24T08:24:48.750Z,4.03
2022-11-24T08:27:17.710Z,3.70
2022-11-24T08:29:46.279Z,4.13
2022-11-24T08:32:21.748Z,4.43
2022-11-24T08:34:52.177Z,4.20
2022-11-24T08:37:25.933Z,4.00
2022-11-24T08:39:55.839Z,4.13
2022-11-24T08:42:24.361Z,3.78
2022-11-24T08:44:58.870Z,4.35
2022-11-24T08:47:27.846Z,4.05
2022-11-24T08:49:56.386Z,4.50
2022-11-24T08:52:24.911Z,3.90
2022-11-24T08:54:54.219Z,3.78
2022-11-24T08:57:24.746Z,3.90
2022-11-24T08:59:53.303Z,3.92
2022-11-24T09:02:21.867Z,3.67
2022-11-24T09:04:51.196Z,3.58
2022-11-24T09:07:20.193Z,4.28
2022-11-24T09:09:48.725Z,4.38
2022-11-24T09:12:17.443Z,4.18
2022-11-24T09:14:47.351Z,4.53
2022-11-24T09:17:16.026Z,4.60
2022-11-24T09:19:44.547Z,6.40
2022-11-24T09:22:13.070Z,5.10
2022-11-24T09:24:41.660Z,4.13
2022-11-24T09:27:10.205Z,4.20
2022-11-24T09:29:38.926Z,4.43
2022-11-24T09:32:08.823Z,4.15
2022-11-24T09:34:37.383Z,4.15
2022-11-24T09:37:05.903Z,6.03
2022-11-24T09:39:34.720Z,4.57
2022-11-24T09:42:09.357Z,4.85
2022-11-24T09:44:46.053Z,3.90
2022-11-24T09:47:20.044Z,3.72
2022-11-24T09:49:51.848Z,3.97
2022-11-24T09:52:31.285Z,3.70
2022-11-24T09:55:03.102Z,3.83
2022-11-24T09:57:37.443Z,3.55
2022-11-24T10:00:13.248Z,3.45
2022-11-24T10:02:43.150Z,3.60
2022-11-24T10:05:14.271Z,3.17
2022-11-24T10:07:46.094Z,3.42
2022-11-24T10:10:24.247Z,3.42
2022-11-24T10:13:01.534Z,3.15
2022-11-24T10:15:39.805Z,3.00
2022-11-24T10:18:22.275Z,3.22
2022-11-24T10:20:55.020Z,2.90
2022-11-24T10:23:35.777Z,2.95
2022-11-24T10:26:10.392Z,2.80
2022-11-24T10:28:41.956Z,2.40
2022-11-24T10:31:17.968Z,2.70
2022-11-24T10:33:48.402Z,2.60
2022-11-24T10:36:20.181Z,2.22
2022-11-24T10:38:52.590Z,2.72
2022-11-24T10:41:23.154Z,2.63
2022-11-24T10:43:52.850Z,2.25
2022-11-24T10:46:24.767Z,2.25
2022-11-24T10:48:55.849Z,2.65
2022-11-24T10:51:40.639Z,2.55
2022-11-24T10:54:14.538Z,2.22
2022-11-24T10:56:43.410Z,2.40
2022-11-24T10:59:30.390Z,2.38
2022-11-24T11:01:59.082Z,2.45
2022-11-24T11:04:29.999Z,2.22
2022-11-24T11:07:11.764Z,2.70
2022-11-24T11:09:40.338Z,2.00
2022-11-24T11:12:42.186Z,2.33
2022-11-24T11:15:22.313Z,2.22
2022-11-24T11:17:52.436Z,2.13
2022-11-24T11:20:26.131Z,1.88
2022-11-24T11:22:55.950Z,2.58
2022-11-24T11:25:26.890Z,2.00
2022-11-24T11:28:16.594Z,2.17
2022-11-24T11:31:16.628Z,2.33
2022-11-24T11:34:04.669Z,2.10
2022-11-24T11:36:38.108Z,2.25
2022-11-24T11:39:06.751Z,2.13
2022-11-24T11:41:37.853Z,2.15
2022-11-24T11:44:17.083Z,2.28
2022-11-24T11:46:45.898Z,2.15
2022-11-24T11:49:14.864Z,2.13
2022-11-24T11:52:03.442Z,2.20
2022-11-24T11:54:37.176Z,2.15
2022-11-24T11:57:09.677Z,2.00
2022-11-24T11:59:48.043Z,2.15
2022-11-24T12:02:41.280Z,1.80
2022-11-24T12:05:13.603Z,2.15
2022-11-24T12:07:49.362Z,2.20
2022-11-24T12:10:24.636Z,1.73
2022-11-24T12:13:00.957Z,1.98
2022-11-24T12:15:33.092Z,1.75
2022-11-24T12:18:26.890Z,1.80
2022-11-24T12:21:05.066Z,1.80
2022-11-24T12:23:41.830Z,1.92
2022-11-24T12:26:14.749Z,1.83
2022-11-24T12:28:47.486Z,2.00
2022-11-24T12:31:20.602Z,1.80
2022-11-24T12:34:04.406Z,2.08
2022-11-24T12:36:38.018Z,1.80
2022-11-24T12:39:16.170Z,1.60
2022-11-24T12:41:50.324Z,1.60
2022-11-24T12:44:32.652Z,1.73
2022-11-24T12:47:05.436Z,1.60
2022-11-24T12:49:37.746Z,1.95
2022-11-24T12:52:08.019Z,1.70
2022-11-24T12:54:40.335Z,1.42
2022-11-24T12:57:12.694Z,1.85
2022-11-24T12:59:45.270Z,1.48
2022-11-24T13:02:18.712Z,1.35
2022-11-24T13:04:49.319Z,1.58
2022-11-24T13:07:20.159Z,1.60
2022-11-24T13:10:09.552Z,1.55
2022-11-24T13:12:54.371Z,1.70
2022-11-24T13:15:43.820Z,1.92
2022-11-24T13:18:32.055Z,1.17
2022-11-24T13:21:00.733Z,1.80
2022-11-24T13:23:29.715Z,1.17
2022-11-24T13:26:13.092Z,1.30
2022-11-24T13:29:17.918Z,1.40
2022-11-24T13:31:46.758Z,1.42
2022-11-24T13:34:30.282Z,1.45
2022-11-24T13:36:58.799Z,1.50
2022-11-24T13:39:51.299Z,1.58
2022-11-24T13:42:41.770Z,1.63
2022-11-24T13:45:31.979Z,1.40
2022-11-24T13:48:00.527Z,1.30
2022-11-24T13:50:43.984Z,1.60
2022-11-24T13:53:16.385Z,1.50
2022-11-24T13:55:54.542Z,1.60
2022-11-24T13:58:33.661Z,1.23
2022-11-24T14:01:20.274Z,1.35
2022-11-24T14:04:28.739Z,1.73
2022-11-24T14:06:45.298Z,1.33
2022-11-24T14:09:28.666Z,1.13
2022-11-24T14:11:59.845Z,1.40
2022-11-24T14:14:28.409Z,1.40
2022-11-24T14:17:09.921Z,1.20
2022-11-24T14:19:39.798Z,1.05
2022-11-24T14:22:14.038Z,1.30
2022-11-24T14:24:45.251Z,1.45
2022-11-24T14:27:15.873Z,1.42
2022-11-24T14:29:54.719Z,1.25
2022-11-24T14:32:23.273Z,1.70
2022-11-24T14:34:54.441Z,1.52
2022-11-24T14:37:23.186Z,1.48
2022-11-24T14:39:52.061Z,1.65
2022-11-24T14:42:22.306Z,1.83
2022-11-24T14:44:54.114Z,1.50
2022-11-24T14:47:32.461Z,1.65
2022-11-24T14:50:11.163Z,1.90
2022-11-24T14:52:45.135Z,1.90
2022-11-24T14:55:25.477Z,1.85
2022-11-24T14:57:54.123Z,1.48
2022-11-24T15:00:28.478Z,1.70
2022-11-24T15:02:57.946Z,1.60
2022-11-24T15:05:27.945Z,1.70
2022-11-24T15:08:02.944Z,1.48
2022-11-24T15:10:34.236Z,1.95
2022-11-24T15:13:04.373Z,1.92
2022-11-24T15:15:34.041Z,1.63
2022-11-24T15:18:03.753Z,1.90
2022-11-24T15:20:35.637Z,1.75
2022-11-24T15:23:22.686Z,1.45
2022-11-24T15:25:51.613Z,1.92
2022-11-24T15:28:24.754Z,1.77
2022-11-24T15:30:54.397Z,1.63
2022-11-24T15:33:23.484Z,1.85
2022-11-24T15:35:53.666Z,1.60
2022-11-24T15:38:22.662Z,1.98
2022-11-24T15:40:52.371Z,1.77
2022-11-24T15:43:27.037Z,2.03
2022-11-24T15:45:55.759Z,2.00
2022-11-24T15:48:24.290Z,2.00
2022-11-24T15:50:54.844Z,2.22
2022-11-24T15:53:25.733Z,1.90
2022-11-24T15:55:56.255Z,1.98
2022-11-24T15:58:25.161Z,2.20
2022-11-24T16:00:54.030Z,1.75
2022-11-24T16:06:17.913Z,2.00
2022-11-24T16:08:52.203Z,2.13
2022-11-24T16:11:20.745Z,2.03
2022-11-24T16:13:52.852Z,2.08
2022-11-24T16:16:22.863Z,1.92
2022-11-24T16:18:51.494Z,1.90
2022-11-24T16:21:21.444Z,2.13
2022-11-24T16:23:49.990Z,1.98
2022-11-24T16:26:18.518Z,1.80
2022-11-24T16:28:47.067Z,1.58
2022-11-24T16:31:16.439Z,2.88
2022-11-24T16:33:46.499Z,2.88
2022-11-24T16:36:15.478Z,3.40
2022-11-24T16:38:45.742Z,2.45
2022-11-24T16:41:14.478Z,2.28
2022-11-24T16:43:43.049Z,1.73
2022-11-24T16:46:19.120Z,1.67
2022-11-24T16:48:48.541Z,2.10
2022-11-24T16:51:17.198Z,2.45
2022-11-24T16:53:47.150Z,2.92
2022-11-24T16:56:16.649Z,3.03
2022-11-24T16:58:45.198Z,2.63
2022-11-24T17:01:14.732Z,2.80
2022-11-24T17:03:43.381Z,2.00
2022-11-24T17:06:12.870Z,2.10
2022-11-24T17:08:42.051Z,2.20
2022-11-24T17:11:12.784Z,1.90
2022-11-24T17:13:41.714Z,1.90
2022-11-24T17:16:11.490Z,2.30
2022-11-24T17:18:40.182Z,1.92
2022-11-24T17:21:10.192Z,2.17
2022-11-24T17:23:38.954Z,1.85
2022-11-24T17:26:08.741Z,1.60
2022-11-24T17:28:39.247Z,2.22
2022-11-24T17:31:08.199Z,1.90
2022-11-24T17:33:37.072Z,2.30
2022-11-24T17:36:06.347Z,2.67
2022-11-24T17:38:36.031Z,2.75
2022-11-24T17:41:05.110Z,2.80
2022-11-24T17:43:33.835Z,2.55
2022-11-24T17:46:04.704Z,2.92
2022-11-24T17:48:33.705Z,3.38
2022-11-24T17:51:03.258Z,4.43
2022-11-24T17:53:32.222Z,2.65
2022-11-24T17:56:01.435Z,2.75
2022-11-24T17:58:30.215Z,2.40
2022-11-24T18:00:59.397Z,2.35
2022-11-24T18:03:31.573Z,2.60
2022-11-24T18:06:00.337Z,2.47
2022-11-24T18:08:28.845Z,2.33
2022-11-24T18:11:04.163Z,2.58
2022-11-24T18:13:55.204Z,2.30
2022-11-24T18:16:21.326Z,2.35
2022-11-24T18:19:07.471Z,2.50
2022-11-24T18:21:37.668Z,2.78
2022-11-24T18:24:06.346Z,2.83
2022-11-24T18:26:34.971Z,3.17
2022-11-24T18:29:03.644Z,2.70
2022-11-24T18:31:34.175Z,2.90
2022-11-24T18:34:05.208Z,2.70
2022-11-24T18:36:34.768Z,2.05
2022-11-24T18:39:03.546Z,2.58
2022-11-24T18:41:32.447Z,2.78
2022-11-24T18:44:02.374Z,3.97
2022-11-24T18:46:31.155Z,3.60
2022-11-24T18:48:59.752Z,3.60
2022-11-24T18:51:30.012Z,3.40
2022-11-24T18:53:59.041Z,3.42
2022-11-24T18:56:28.013Z,3.17
2022-11-24T18:58:57.254Z,5.47
2022-11-24T19:01:26.798Z,4.45
2022-11-24T19:03:56.834Z,3.60
2022-11-24T19:06:28.586Z,2.90
2022-11-24T19:08:58.510Z,3.17
2022-11-24T19:11:28.217Z,3.03
2022-11-24T19:13:57.078Z,3.00
2022-11-24T19:16:26.189Z,2.90
2022-11-24T19:18:59.906Z,3.15
2022-11-24T19:21:28.734Z,2.70
2022-11-24T19:24:04.546Z,3.08
2022-11-24T19:26:34.879Z,3.28
2022-11-24T19:29:04.145Z,2.60
2022-11-24T19:31:32.881Z,2.80
2022-11-24T19:34:03.022Z,3.08
2022-11-24T19:36:31.725Z,2.75
2022-11-24T19:39:03.126Z,2.53
2022-11-24T19:41:32.341Z,2.65
2022-11-24T19:44:01.415Z,2.75
2022-11-24T19:46:30.594Z,3.10
2022-11-24T19:49:01.220Z,3.58
2022-11-24T19:51:31.574Z,3.15
2022-11-24T19:54:01.939Z,3.28
2022-11-24T19:56:31.298Z,4.32
2022-11-24T19:59:00.006Z,3.60
2022-11-24T20:01:29.231Z,4.65
2022-11-24T20:03:59.211Z,4.20
2022-11-24T20:06:28.224Z,4.07
2022-11-24T20:08:56.767Z,5.22
2022-11-24T20:11:26.958Z,3.67
2022-11-24T20:13:55.578Z,4.22
2022-11-24T20:16:26.515Z,3.92
2022-11-24T20:18:56.745Z,4.13
2022-11-24T20:21:28.536Z,3.72
2022-11-24T20:23:58.768Z,3.72
2022-11-24T20:26:29.629Z,3.20
2022-11-24T20:28:59.129Z,3.15
2022-11-24T20:31:29.623Z,3.17
2022-11-24T20:33:58.358Z,2.92
2022-11-24T20:36:28.102Z,2.97
2022-11-24T20:38:56.720Z,2.80
2022-11-24T20:41:26.225Z,2.80
2022-11-24T20:43:56.765Z,2.58
2022-11-24T20:46:26.667Z,3.00
2022-11-24T20:48:55.505Z,2.90
2022-11-24T20:51:25.044Z,2.47
2022-11-24T20:53:54.842Z,2.92
2022-11-24T20:56:24.273Z,2.50
2022-11-24T20:58:53.275Z,2.20
2022-11-24T21:01:24.154Z,2.40
2022-11-24T21:03:54.085Z,2.60
2022-11-24T21:06:23.013Z,2.20
2022-11-24T21:08:51.629Z,2.50
2022-11-24T21:11:20.824Z,2.40
2022-11-24T21:13:50.114Z,2.53
2022-11-24T21:16:19.838Z,2.22
2022-11-24T21:18:51.027Z,2.30
2022-11-24T21:21:20.314Z,2.60
2022-11-24T21:23:49.088Z,2.45
2022-11-24T21:26:18.147Z,2.90
2022-11-24T21:28:47.379Z,3.03
2022-11-24T21:31:17.149Z,3.22
2022-11-24T21:33:46.525Z,3.25
2022-11-24T21:36:17.858Z,2.38
2022-11-24T21:38:50.945Z,2.47
2022-11-24T21:41:20.316Z,2.40
2022-11-24T21:43:49.961Z,2.78
2022-11-24T21:46:18.864Z,2.20
2022-11-24T21:48:47.483Z,2.65
2022-11-24T21:51:18.323Z,2.60
2022-11-24T21:53:47.495Z,2.05
2022-11-24T21:56:17.126Z,2.28
2022-11-24T21:58:47.205Z,2.20
2022-11-24T22:01:16.355Z,2.65
2022-11-24T22:03:45.804Z,1.90
2022-11-24T22:06:14.801Z,2.15
2022-11-24T22:08:44.681Z,2.35
2022-11-24T22:11:14.225Z,2.25
2022-11-24T22:13:43.169Z,2.30
2022-11-24T22:16:12.607Z,2.00
2022-11-24T22:18:42.171Z,1.80
2022-11-24T22:21:13.287Z,1.88
2022-11-24T22:23:41.845Z,2.08
2022-11-24T22:26:13.645Z,1.70
2022-11-24T22:28:42.654Z,1.90
2022-11-24T22:31:12.392Z,2.10
2022-11-24T22:33:41.107Z,1.77
2022-11-24T22:36:10.051Z,2.17
2022-11-24T22:38:38.984Z,2.00
2022-11-24T22:41:08.317Z,2.10
2022-11-24T22:43:39.225Z,2.03
2022-11-24T22:46:08.954Z,2.00
2022-11-24T22:48:37.498Z,2.15
2022-11-24T22:51:06.749Z,2.00
2022-11-24T22:53:35.340Z,2.28
2022-11-24T22:56:04.229Z,2.33
2022-11-24T22:58:34.201Z,1.90
2022-11-24T23:01:07.286Z,2.10
2022-11-24T23:03:35.905Z,2.28
2022-11-24T23:06:05.778Z,2.20
2022-11-24T23:08:34.767Z,2.00
2022-11-24T23:11:03.570Z,2.38
2022-11-24T23:13:32.509Z,2.30
2022-11-24T23:16:04.422Z,2.35
2022-11-24T23:18:34.619Z,1.83
2022-11-24T23:21:07.266Z,2.28
2022-11-24T23:23:35.857Z,2.13
2022-11-24T23:26:05.025Z,1.95
2022-11-24T23:28:33.838Z,2.08
2022-11-24T23:31:03.928Z,2.40
2022-11-24T23:33:34.032Z,2.00
2022-11-24T23:36:03.094Z,2.10
2022-11-24T23:38:32.904Z,2.60
2022-11-24T23:41:04.009Z,2.15
2022-11-24T23:43:32.645Z,1.75
2022-11-24T23:46:04.467Z,1.83
2022-11-24T23:48:35.019Z,2.13
2022-11-24T23:51:07.445Z,2.17
2022-11-24T23:53:36.919Z,1.77
2022-11-24T23:56:05.934Z,1.70
2022-11-24T23:58:34.858Z,1.80
